Accueil
METAR-TAF:

METAR-TAF

Aéroports :

Caldwell, New Jersey, États-Unis

latitude: 40-52-35N, longitude: 074-16-59W, altitude: 52 m

Observation

Le bulletin a été fait il y a 1 heure et 5 minutes, à 18:53 UTC
Vent 20 kt de ouest/nord-ouest avec des rafales jusqu'à 35 kt
Température 8°C
Humidité 46%
Pression 997 hPa
Visibilité: 16.1 km
Quelques nuages à une hauteur de 4100 ft
Nuages fragmentés à une hauteur de 5000 ft
Ciel couvert à une hauteur de 7500 ft
pluie faible

METAR: KCDW 101853Z 30020G35KT 10SM -RA FEW041 BKN050 OVC075 08/M03 A2945 RMK AO2 PK WND 29035/1837 RAE06B51 SLP978 P0000 T00831028

Heure: 15:58 (19:58 UTC)


TAF: absent

Observations et prévisions météorologiques de plus de 4000 aéroports (messages METAR et TAF).

Les stations disponibles sont représentées par des disques jaunes et rouges sur la carte.

Passer la souris dessus pour voir le nom de la station.

Cliquer dessus pour voir les observations et prévisions météorologiques.

Pour changer de carte: cliquez sur les boutons verts avec une croix noire pour zoomer, sur le bouton vert avec un tiret pour effectuer un zoom arrière, ou sur les flèches vertes pour les cartes adjacentes.


METAR-TAF: